Time;durP1;ratioP1;P1;durP2;ratioP2;P2;SDS_P1;SDS_P2;PMS_P1;PMS_P2;Temp;Humidity;BMP_temperature;BMP_pressure;BME280_temperature;BME280_humidity;BME280_pressure;Samples;Min_cycle;Max_cycle;Signal;HPM_P1;HPM_P2
2022/03/05 00:02:04;;;;;;;0.00;0.00;;;5.30;52.70;;;;;;4134415;28;20041;-74
2022/03/05 00:04:26;;;;;;;0.00;0.00;;;5.40;52.50;;;;;;4147364;28;20045;-75
2022/03/05 00:06:51;;;;;;;0.00;0.00;;;5.30;52.20;;;;;;4134708;28;20045;-73
2022/03/05 00:09:18;;;;;;;0.00;0.00;;;5.40;52.20;;;;;;4147902;28;20069;-74
2022/03/05 00:11:41;;;;;;;0.00;0.00;;;5.30;52.50;;;;;;4134489;28;20129;-74
2022/03/05 00:14:03;;;;;;;0.00;0.00;;;5.20;52.50;;;;;;4147876;28;20052;-72
2022/03/05 00:16:25;;;;;;;0.00;0.00;;;5.20;52.80;;;;;;4120384;28;20477;-74
2022/03/05 00:18:55;;;;;;;0.00;0.00;;;5.30;52.90;;;;;;4147464;28;20354;-76
2022/03/05 00:21:19;;;;;;;0.00;0.00;;;5.30;52.70;;;;;;4147560;28;20092;-74
2022/03/05 00:23:46;;;;;;;0.00;0.00;;;5.30;52.60;;;;;;4134300;28;20444;-74
2022/03/05 00:26:17;;;;;;;0.00;0.00;;;5.30;52.60;;;;;;4133507;28;20057;-74
2022/03/05 00:28:39;;;;;;;0.00;0.00;;;5.20;52.80;;;;;;4149492;28;20449;-76
2022/03/05 00:31:05;;;;;;;0.00;0.00;;;5.10;52.90;;;;;;4137113;28;20072;-75
2022/03/05 00:33:28;;;;;;;0.00;0.00;;;5.10;53.00;;;;;;4150454;28;20042;-74
2022/03/05 00:35:55;;;;;;;0.00;0.00;;;5.10;52.90;;;;;;4124631;28;20511;-73
2022/03/05 00:38:21;;;;;;;0.00;0.00;;;4.90;52.90;;;;;;4150260;28;20463;-74
2022/03/05 00:40:44;;;;;;;0.00;0.00;;;4.90;53.30;;;;;;4150517;28;20034;-76
2022/03/05 00:43:10;;;;;;;0.00;0.00;;;4.90;53.30;;;;;;4150510;28;20056;-75
2022/03/05 00:45:32;;;;;;;0.00;0.00;;;4.90;52.90;;;;;;4150697;28;20050;-74
2022/03/05 00:47:54;;;;;;;0.00;0.00;;;4.90;52.60;;;;;;4137147;28;20101;-75
2022/03/05 00:50:16;;;;;;;0.00;0.00;;;5.00;52.60;;;;;;4134054;28;20104;-74
2022/03/05 00:52:39;;;;;;;0.00;0.00;;;5.00;52.60;;;;;;4134152;28;20047;-75
2022/03/05 00:55:06;;;;;;;0.00;0.00;;;5.00;53.30;;;;;;4133729;28;20473;-75
2022/03/05 00:57:33;;;;;;;0.00;0.00;;;5.00;52.80;;;;;;4134300;28;20035;-74
2022/03/05 00:59:55;;;;;;;0.00;0.00;;;4.90;52.60;;;;;;4133900;28;20081;-74
2022/03/05 01:02:17;;;;;;;0.00;0.00;;;4.90;52.80;;;;;;4120277;28;20609;-75
2022/03/05 01:04:46;;;;;;;0.00;0.00;;;4.80;52.80;;;;;;4133824;28;20038;-74
2022/03/05 01:07:08;;;;;;;0.00;0.00;;;4.80;52.90;;;;;;4134826;28;20480;-74
2022/03/05 01:09:33;;;;;;;0.00;0.00;;;4.80;53.10;;;;;;4134065;28;20377;-73
2022/03/05 01:11:58;;;;;;;0.00;0.00;;;4.70;53.10;;;;;;4107074;28;20047;-74
2022/03/05 01:14:23;;;;;;;0.00;0.00;;;4.70;53.30;;;;;;4093710;28;20051;-77
2022/03/05 01:16:46;;;;;;;0.00;0.00;;;4.60;53.40;;;;;;4134779;28;20381;-74
2022/03/05 01:19:18;;;;;;;0.00;0.00;;;4.60;53.40;;;;;;4135007;28;20050;-73
2022/03/05 01:21:46;;;;;;;0.00;0.00;;;4.50;53.50;;;;;;4133830;28;20056;-75
2022/03/05 01:24:18;;;;;;;0.00;0.00;;;4.50;53.50;;;;;;4133277;28;20503;-75
2022/03/05 01:26:43;;;;;;;0.00;0.00;;;4.40;53.70;;;;;;4134538;28;20108;-74
2022/03/05 01:29:18;;;;;;;0.00;0.00;;;4.30;53.80;;;;;;4134690;28;20050;-74
2022/03/05 01:31:44;;;;;;;0.00;0.00;;;4.30;53.90;;;;;;4133348;28;20053;-75
2022/03/05 01:34:08;;;;;;;0.00;0.00;;;4.30;53.90;;;;;;4133082;28;20050;-74
2022/03/05 01:36:49;;;;;;;0.00;0.00;;;4.30;53.90;;;;;;4134112;28;20064;-74
2022/03/05 01:39:17;;;;;;;0.00;0.00;;;4.30;53.90;;;;;;4132961;28;20050;-72
2022/03/05 01:41:57;;;;;;;0.00;0.00;;;4.40;53.60;;;;;;4133102;28;20042;-74
2022/03/05 01:44:34;;;;;;;0.00;0.00;;;4.40;53.50;;;;;;4136965;28;20046;-74
2022/03/05 01:47:04;;;;;;;0.00;0.00;;;4.40;53.30;;;;;;4136435;28;20052;-73
2022/03/05 01:49:40;;;;;;;0.00;0.00;;;4.40;53.20;;;;;;4150279;28;20056;-74
2022/03/05 01:52:03;;;;;;;0.00;0.00;;;4.40;53.10;;;;;;4149246;28;20476;-74
2022/03/05 01:54:41;;;;;;;0.00;0.00;;;4.30;53.70;;;;;;4149716;28;20473;-73
2022/03/05 01:57:10;;;;;;;0.00;0.00;;;4.30;53.20;;;;;;4149097;28;20048;-76
2022/03/05 01:59:46;;;;;;;0.00;0.00;;;4.20;53.20;;;;;;4149375;28;20064;-74
2022/03/05 02:02:13;;;;;;;0.00;0.00;;;4.30;53.30;;;;;;4149312;28;20191;-73
2022/03/05 02:04:57;;;;;;;0.00;0.00;;;4.30;53.20;;;;;;4149041;28;20050;-73
2022/03/05 02:07:30;;;;;;;0.00;0.00;;;4.20;53.30;;;;;;4149812;28;20045;-74
2022/03/05 02:09:59;;;;;;;0.00;0.00;;;4.20;53.40;;;;;;4149940;28;20140;-73
2022/03/05 02:12:34;;;;;;;0.00;0.00;;;4.20;53.50;;;;;;4132974;28;20045;-74
2022/03/05 02:15:08;;;;;;;0.00;0.00;;;4.20;53.80;;;;;;4132877;28;20050;-73
2022/03/05 02:17:31;;;;;;;0.00;0.00;;;4.20;53.80;;;;;;4132666;28;20046;-73
2022/03/05 02:20:00;;;;;;;0.00;0.00;;;4.10;53.90;;;;;;4119914;28;20547;-74
2022/03/05 02:22:40;;;;;;;0.00;0.00;;;4.10;54.10;;;;;;4133203;28;20465;-72
2022/03/05 02:25:13;;;;;;;0.00;0.00;;;3.90;54.20;;;;;;4132729;28;20485;-74
2022/03/05 02:27:36;;;;;;;0.00;0.00;;;3.80;54.50;;;;;;4133186;28;20043;-73
2022/03/05 02:29:58;;;;;;;0.00;0.00;;;3.70;54.60;;;;;;4119203;28;20097;-73
2022/03/05 02:32:24;;;;;;;0.00;0.00;;;3.70;54.80;;;;;;4132374;28;20046;-75
2022/03/05 02:34:51;;;;;;;0.00;0.00;;;3.70;54.60;;;;;;4132524;28;20142;-73
2022/03/05 02:37:16;;;;;;;0.00;0.00;;;3.80;54.40;;;;;;4118975;28;20062;-74
2022/03/05 02:39:42;;;;;;;0.00;0.00;;;3.80;54.30;;;;;;4132583;28;20128;-74
2022/03/05 02:42:12;;;;;;;0.00;0.00;;;3.90;54.20;;;;;;4132527;28;20058;-74
2022/03/05 02:44:34;;;;;;;0.00;0.00;;;4.00;54.20;;;;;;4119135;28;20042;-75
2022/03/05 02:46:58;;;;;;;0.00;0.00;;;3.90;54.20;;;;;;4132283;28;20121;-74
2022/03/05 02:49:20;;;;;;;0.00;0.00;;;4.00;54.40;;;;;;4118721;28;20055;-73
2022/03/05 02:51:44;;;;;;;0.00;0.00;;;4.00;54.30;;;;;;4118276;28;20378;-74
2022/03/05 02:54:06;;;;;;;0.00;0.00;;;3.90;54.40;;;;;;4118244;28;20042;-73
2022/03/05 02:56:31;;;;;;;0.00;0.00;;;3.90;54.40;;;;;;4119046;28;20048;-73
2022/03/05 02:58:54;;;;;;;0.00;0.00;;;3.90;55.00;;;;;;4132094;28;20046;-73
2022/03/05 03:01:18;;;;;;;0.00;0.00;;;3.80;54.60;;;;;;4105442;28;20390;-75
2022/03/05 03:03:44;;;;;;;0.00;0.00;;;3.80;54.70;;;;;;4131946;28;20460;-73
2022/03/05 03:06:08;;;;;;;0.00;0.00;;;3.80;55.10;;;;;;4131705;28;20056;-73
2022/03/05 03:08:33;;;;;;;0.00;0.00;;;3.80;54.60;;;;;;4132203;28;20042;-74
2022/03/05 03:10:58;;;;;;;0.00;0.00;;;3.70;54.60;;;;;;4118608;28;20052;-74
2022/03/05 03:13:22;;;;;;;0.00;0.00;;;3.70;54.70;;;;;;4132162;28;20563;-74
2022/03/05 03:15:49;;;;;;;0.00;0.00;;;3.60;55.00;;;;;;4118529;28;20232;-74
2022/03/05 03:18:16;;;;;;;0.00;0.00;;;3.50;55.00;;;;;;4131900;28;20056;-74
2022/03/05 03:20:45;;;;;;;0.00;0.00;;;3.60;55.10;;;;;;4118958;28;20042;-73
2022/03/05 03:23:12;;;;;;;0.00;0.00;;;3.60;54.90;;;;;;4131831;28;20138;-73
2022/03/05 03:25:38;;;;;;;0.00;0.00;;;3.60;55.00;;;;;;4118252;28;20472;-74
2022/03/05 03:28:00;;;;;;;0.00;0.00;;;3.50;55.00;;;;;;4131783;28;20184;-74
2022/03/05 03:30:22;;;;;;;0.00;0.00;;;3.50;55.10;;;;;;4131443;28;20109;-74
2022/03/05 03:32:49;;;;;;;0.00;0.00;;;3.40;55.30;;;;;;4105335;28;20097;-75
2022/03/05 03:35:16;;;;;;;0.00;0.00;;;3.40;55.30;;;;;;4114091;28;20061;-74
2022/03/05 03:37:42;;;;;;;0.00;0.00;;;3.40;55.50;;;;;;4148160;28;20503;-74
2022/03/05 03:40:13;;;;;;;0.00;0.00;;;3.40;55.50;;;;;;4147351;28;20074;-73
2022/03/05 03:42:39;;;;;;;0.00;0.00;;;3.60;55.70;;;;;;4134204;28;20081;-74
2022/03/05 03:45:05;;;;;;;0.00;0.00;;;3.50;55.60;;;;;;4153345;28;20052;-72
2022/03/05 03:47:30;;;;;;;0.00;0.00;;;3.40;55.60;;;;;;4134304;28;20633;-74
2022/03/05 03:49:57;;;;;;;0.00;0.00;;;3.30;55.70;;;;;;4147701;28;20385;-73
2022/03/05 03:52:22;;;;;;;0.00;0.00;;;3.40;55.80;;;;;;4133585;28;20054;-74
2022/03/05 03:55:07;;;;;;;0.00;0.00;;;3.30;55.80;;;;;;4133808;28;20062;-74
2022/03/05 03:57:30;;;;;;;0.00;0.00;;;3.30;56.00;;;;;;4134268;28;20132;-74
2022/03/05 03:59:52;;;;;;;0.00;0.00;;;3.20;56.20;;;;;;4134023;28;20046;-74
2022/03/05 04:02:14;;;;;;;0.00;0.00;;;3.20;56.30;;;;;;4133741;28;20132;-73
2022/03/05 04:04:41;;;;;;;0.00;0.00;;;3.20;56.40;;;;;;4136932;28;20057;-73
2022/03/05 04:10:04;;;;;;;0.00;0.00;;;3.30;56.50;;;;;;4123398;28;20050;-73
2022/03/05 04:12:28;;;;;;;0.00;0.00;;;3.20;56.70;;;;;;4122831;28;20567;-73
2022/03/05 04:14:54;;;;;;;0.00;0.00;;;3.20;56.90;;;;;;4129208;28;20489;-75
2022/03/05 04:17:19;;;;;;;0.00;0.00;;;3.20;57.00;;;;;;4139210;28;20068;-75
2022/03/05 04:19:43;;;;;;;0.00;0.00;;;3.10;57.10;;;;;;4139512;28;20161;-74
2022/03/05 04:22:07;;;;;;;0.00;0.00;;;3.10;57.10;;;;;;4122704;28;20050;-74
2022/03/05 04:24:34;;;;;;;0.00;0.00;;;3.00;57.30;;;;;;4136754;28;20882;-73
2022/03/05 04:26:56;;;;;;;0.00;0.00;;;2.90;57.30;;;;;;4136693;28;20051;-73
2022/03/05 04:29:22;;;;;;;0.00;0.00;;;2.90;57.30;;;;;;4110399;28;20056;-73
2022/03/05 04:31:45;;;;;;;0.00;0.00;;;2.80;57.10;;;;;;4123721;28;20539;-73
2022/03/05 04:34:09;;;;;;;0.00;0.00;;;2.90;57.00;;;;;;4152415;28;20447;-73
2022/03/05 04:36:32;;;;;;;0.00;0.00;;;2.90;57.20;;;;;;4139050;28;20038;-74
2022/03/05 04:38:54;;;;;;;0.00;0.00;;;2.70;56.60;;;;;;4139268;28;20046;-73
2022/03/05 04:41:18;;;;;;;0.00;0.00;;;2.70;56.70;;;;;;4152618;28;20455;-73
2022/03/05 04:43:40;;;;;;;0.00;0.00;;;2.60;56.80;;;;;;4136265;28;20053;-73
2022/03/05 04:46:02;;;;;;;0.00;0.00;;;2.60;56.90;;;;;;4152451;28;20054;-73
2022/03/05 04:48:24;;;;;;;0.00;0.00;;;2.60;57.30;;;;;;4152108;28;20675;-73
2022/03/05 04:50:48;;;;;;;0.00;0.00;;;2.70;57.00;;;;;;4153030;28;20053;-73
2022/03/05 04:53:11;;;;;;;0.00;0.00;;;2.90;56.60;;;;;;4152855;28;20049;-73
2022/03/05 04:55:33;;;;;;;0.00;0.00;;;3.10;56.20;;;;;;4138858;28;20124;-73
2022/03/05 04:58:09;;;;;;;0.00;0.00;;;3.10;56.00;;;;;;4139181;28;20492;-73
2022/03/05 05:00:32;;;;;;;0.00;0.00;;;3.10;56.00;;;;;;4122335;28;20046;-74
2022/03/05 05:02:54;;;;;;;0.00;0.00;;;3.00;56.10;;;;;;4136280;28;20065;-74
2022/03/05 05:05:21;;;;;;;0.00;0.00;;;2.90;56.40;;;;;;4109714;28;20418;-73
2022/03/05 05:07:43;;;;;;;0.00;0.00;;;3.00;56.50;;;;;;4136314;28;20046;-74
2022/03/05 05:10:08;;;;;;;0.00;0.00;;;2.90;56.60;;;;;;4135904;28;20058;-74
2022/03/05 05:12:35;;;;;;;0.00;0.00;;;3.00;56.60;;;;;;4123410;28;20149;-73
2022/03/05 05:14:57;;;;;;;0.00;0.00;;;3.00;56.90;;;;;;4126681;28;20496;-75
2022/03/05 05:17:21;;;;;;;0.00;0.00;;;3.00;56.90;;;;;;4136442;28;20120;-74
2022/03/05 05:19:45;;;;;;;0.00;0.00;;;2.90;57.10;;;;;;4149698;28;20493;-73
2022/03/05 05:22:11;;;;;;;0.00;0.00;;;2.80;57.30;;;;;;4136128;28;20124;-73
2022/03/05 05:24:36;;;;;;;0.00;0.00;;;2.80;57.30;;;;;;4151091;28;20049;-74
2022/03/05 05:27:00;;;;;;;0.00;0.00;;;2.80;57.20;;;;;;4136124;28;20071;-74
2022/03/05 05:29:25;;;;;;;0.00;0.00;;;2.70;57.20;;;;;;4139556;28;20050;-73
2022/03/05 05:32:02;;;;;;;0.00;0.00;;;2.70;57.30;;;;;;4133610;28;20046;-74
2022/03/05 05:34:29;;;;;;;0.00;0.00;;;2.70;57.30;;;;;;4119256;28;20046;-73
2022/03/05 05:36:55;;;;;;;0.00;0.00;;;2.80;57.30;;;;;;4133581;28;20472;-73
2022/03/05 05:39:17;;;;;;;0.00;0.00;;;2.80;57.30;;;;;;4133325;28;20054;-74
2022/03/05 05:41:41;;;;;;;0.00;0.00;;;2.90;57.30;;;;;;4133372;28;20058;-74
2022/03/05 05:44:06;;;;;;;0.00;0.00;;;2.90;57.20;;;;;;4133199;28;20093;-73
2022/03/05 05:46:32;;;;;;;0.00;0.00;;;2.90;57.30;;;;;;4122652;28;20488;-73
2022/03/05 05:48:57;;;;;;;0.00;0.00;;;2.80;57.60;;;;;;4153887;28;20049;-74
2022/03/05 05:51:23;;;;;;;0.00;0.00;;;2.80;57.90;;;;;;4135539;28;20054;-73
2022/03/05 05:53:55;;;;;;;0.00;0.00;;;2.80;58.00;;;;;;4135639;28;20047;-73
2022/03/05 05:56:19;;;;;;;0.00;0.00;;;2.70;58.50;;;;;;4118905;28;20050;-73
2022/03/05 05:58:45;;;;;;;0.00;0.00;;;2.70;58.50;;;;;;4106507;28;20533;-72
2022/03/05 06:01:07;;;;;;;0.00;0.00;;;2.70;58.30;;;;;;4105917;28;20046;-73
2022/03/05 06:03:29;;;;;;;0.00;0.00;;;2.80;58.20;;;;;;4118970;28;20069;-72
2022/03/05 06:05:52;;;;;;;0.00;0.00;;;2.80;58.30;;;;;;4119572;28;20550;-74
2022/03/05 06:08:16;;;;;;;0.00;0.00;;;2.90;58.30;;;;;;4119527;28;20133;-69
2022/03/05 06:10:42;;;;;;;0.00;0.00;;;2.90;58.80;;;;;;4133034;28;20046;-70
2022/03/05 06:13:09;;;;;;;0.00;0.00;;;2.90;58.30;;;;;;4132980;28;20046;-69
2022/03/05 06:15:31;;;;;;;0.00;0.00;;;2.80;58.70;;;;;;4119256;28;20063;-70
2022/03/05 06:17:57;;;;;;;0.00;0.00;;;2.70;59.20;;;;;;4133111;28;20180;-71
2022/03/05 06:20:19;;;;;;;0.00;0.00;;;2.70;59.30;;;;;;4132608;28;20484;-70
2022/03/05 06:22:45;;;;;;;0.00;0.00;;;2.80;59.50;;;;;;4119873;28;20054;-71
2022/03/05 06:25:10;;;;;;;0.00;0.00;;;2.80;59.60;;;;;;4118663;28;20062;-71
2022/03/05 06:27:34;;;;;;;0.00;0.00;;;3.00;59.50;;;;;;4119464;28;20424;-70
2022/03/05 06:29:59;;;;;;;0.00;0.00;;;3.10;59.20;;;;;;4132952;28;20472;-72
2022/03/05 06:32:24;;;;;;;0.00;0.00;;;3.10;59.40;;;;;;4119217;28;20458;-73
2022/03/05 06:34:54;;;;;;;0.00;0.00;;;3.10;59.50;;;;;;4120737;28;20060;-71
2022/03/05 06:37:45;;;;;;;0.00;0.00;;;3.30;59.30;;;;;;4132796;28;20369;-70
2022/03/05 06:40:10;;;;;;;0.00;0.00;;;3.40;59.10;;;;;;4118992;28;20422;-70
2022/03/05 06:42:49;;;;;;;0.00;0.00;;;3.60;58.80;;;;;;4132746;28;20411;-71
2022/03/05 06:45:12;;;;;;;0.00;0.00;;;3.80;58.50;;;;;;4119369;28;20113;-72
2022/03/05 06:47:36;;;;;;;0.00;0.00;;;3.80;58.30;;;;;;4119145;28;20038;-71
2022/03/05 06:50:13;;;;;;;0.00;0.00;;;3.60;58.70;;;;;;4119261;28;20435;-74
2022/03/05 06:52:38;;;;;;;0.00;0.00;;;3.60;58.90;;;;;;4132817;28;20515;-74
2022/03/05 06:55:03;;;;;;;0.00;0.00;;;3.50;59.10;;;;;;4119005;28;20054;-73
2022/03/05 06:57:26;;;;;;;0.00;0.00;;;3.40;59.50;;;;;;4119022;28;20050;-72
2022/03/05 06:59:48;;;;;;;0.00;0.00;;;3.40;59.50;;;;;;4119397;28;20050;-73
2022/03/05 07:02:15;;;;;;;0.00;0.00;;;3.40;59.40;;;;;;4105961;28;20053;-74
2022/03/05 07:04:40;;;;;;;0.00;0.00;;;3.40;59.60;;;;;;4132466;28;20038;-73
2022/03/05 07:07:05;;;;;;;0.00;0.00;;;3.50;59.70;;;;;;4119405;28;20615;-75
2022/03/05 07:09:30;;;;;;;0.00;0.00;;;3.70;59.60;;;;;;4119651;28;20097;-73
2022/03/05 07:11:55;;;;;;;0.00;0.00;;;3.90;59.40;;;;;;4103333;28;20047;-73
2022/03/05 07:14:17;;;;;;;0.00;0.00;;;4.30;58.30;;;;;;4102214;28;20051;-73
2022/03/05 07:16:44;;;;;;;0.00;0.00;;;4.70;56.40;;;;;;4116018;28;20098;-72
2022/03/05 07:19:07;;;;;;;0.00;0.00;;;5.00;55.40;;;;;;4089607;28;20061;-72
2022/03/05 07:21:37;;;;;;;0.00;0.00;;;5.10;54.80;;;;;;4115765;28;20182;-72
2022/03/05 07:23:59;;;;;;;0.00;0.00;;;5.30;54.50;;;;;;4117378;28;20050;-73
2022/03/05 07:26:23;;;;;;;0.00;0.00;;;5.40;54.30;;;;;;4117914;28;20418;-74
2022/03/05 07:28:46;;;;;;;0.00;0.00;;;5.60;53.80;;;;;;4104759;28;20038;-72
2022/03/05 07:31:10;;;;;;;0.00;0.00;;;5.90;53.10;;;;;;4131622;28;20133;-72
2022/03/05 07:33:37;;;;;;;0.00;0.00;;;5.90;52.50;;;;;;4131864;28;20385;-73
2022/03/05 07:35:59;;;;;;;0.00;0.00;;;5.90;52.40;;;;;;4115749;28;20054;-74
2022/03/05 07:38:21;;;;;;;0.00;0.00;;;6.10;52.30;;;;;;4088922;28;20051;-72
2022/03/05 07:40:45;;;;;;;0.00;0.00;;;6.30;51.90;;;;;;4103088;28;20042;-72
2022/03/05 07:43:13;;;;;;;0.00;0.00;;;6.70;51.40;;;;;;4116110;28;20092;-73
2022/03/05 07:45:38;;;;;;;0.00;0.00;;;6.90;51.40;;;;;;4102455;28;20070;-71
2022/03/05 07:48:03;;;;;;;0.00;0.00;;;7.10;51.10;;;;;;4115982;28;20052;-73
2022/03/05 07:50:27;;;;;;;0.00;0.00;;;7.30;50.50;;;;;;4115543;28;20058;-73
2022/03/05 07:52:51;;;;;;;0.00;0.00;;;7.30;50.10;;;;;;4102923;28;20053;-76
2022/03/05 07:55:16;;;;;;;0.00;0.00;;;7.50;50.00;;;;;;4102467;28;20083;-75
2022/03/05 07:57:40;;;;;;;0.00;0.00;;;7.60;49.60;;;;;;4102462;28;20099;-72
2022/03/05 08:00:11;;;;;;;0.00;0.00;;;7.80;49.20;;;;;;4102280;28;20083;-75
2022/03/05 08:02:43;;;;;;;;;;;7.70;48.50;;;;;;4090646;28;20105;-74
2022/03/05 08:05:08;;;;;;;0.00;0.00;;;7.40;48.70;;;;;;4102291;28;20033;-74
2022/03/05 08:07:32;;;;;;;0.00;0.00;;;7.40;49.00;;;;;;4102270;28;20046;-74
2022/03/05 08:10:13;;;;;;;0.00;0.00;;;7.60;49.00;;;;;;4102171;28;20358;-75
2022/03/05 08:12:38;;;;;;;0.00;0.00;;;8.20;48.60;;;;;;4101518;28;20043;-74
2022/03/05 08:15:06;;;;;;;0.00;0.00;;;8.40;47.50;;;;;;4089616;28;20048;-73
2022/03/05 08:17:28;;;;;;;0.00;0.00;;;8.70;47.10;;;;;;4102184;28;20369;-73
2022/03/05 08:19:50;;;;;;;0.00;0.00;;;9.00;46.80;;;;;;4144189;28;20050;-75
2022/03/05 08:22:18;;;;;;;0.00;0.00;;;8.90;47.20;;;;;;4133768;28;20108;-73
2022/03/05 08:24:45;;;;;;;0.00;0.00;;;9.40;47.10;;;;;;4147841;28;20041;-74
2022/03/05 08:27:12;;;;;;;0.00;0.00;;;9.80;46.40;;;;;;4134507;28;20074;-73
2022/03/05 08:29:35;;;;;;;0.00;0.00;;;9.60;45.60;;;;;;4134196;28;20096;-73
2022/03/05 08:31:57;;;;;;;0.00;0.00;;;9.10;45.90;;;;;;4120698;28;20521;-74
2022/03/05 08:34:19;;;;;;;0.00;0.00;;;8.60;47.30;;;;;;4133804;28;20050;-72
2022/03/05 08:36:42;;;;;;;0.00;0.00;;;8.70;47.00;;;;;;4148273;28;20129;-73
2022/03/05 08:39:06;;;;;;;0.00;0.00;;;8.70;46.60;;;;;;4148751;28;20046;-72
2022/03/05 08:41:28;;;;;;;0.00;0.00;;;8.50;47.00;;;;;;4148697;28;20061;-72
2022/03/05 08:43:51;;;;;;;0.00;0.00;;;8.60;47.60;;;;;;4134703;28;20078;-73
2022/03/05 08:46:16;;;;;;;0.00;0.00;;;9.40;46.80;;;;;;4147592;28;20128;-74
2022/03/05 08:48:42;;;;;;;0.00;0.00;;;10.00;46.20;;;;;;4148313;28;20085;-76
2022/03/05 08:51:10;;;;;;;0.00;0.00;;;10.40;45.70;;;;;;4137367;28;20046;-75
2022/03/05 08:53:34;;;;;;;0.00;0.00;;;10.30;45.20;;;;;;4124501;28;20385;-74
2022/03/05 08:55:56;;;;;;;0.00;0.00;;;10.10;45.00;;;;;;4137247;28;20065;-74
2022/03/05 08:58:22;;;;;;;0.00;0.00;;;10.20;45.50;;;;;;4150517;28;20472;-76
2022/03/05 09:00:44;;;;;;;0.00;0.00;;;10.70;44.90;;;;;;4151387;28;20054;-75
2022/03/05 09:03:14;;;;;;;0.00;0.00;;;10.70;44.10;;;;;;4138975;28;20057;-74
2022/03/05 09:05:39;;;;;;;0.00;0.00;;;10.50;43.10;;;;;;4151073;28;20439;-77
2022/03/05 09:08:01;;;;;;;0.00;0.00;;;9.90;44.40;;;;;;4137153;28;20080;-74
2022/03/05 09:10:25;;;;;;;0.00;0.00;;;10.00;44.70;;;;;;4136755;28;20062;-74
2022/03/05 09:12:49;;;;;;;0.00;0.00;;;10.10;43.80;;;;;;4137010;28;20054;-73
2022/03/05 09:15:14;;;;;;;0.00;0.00;;;10.00;44.00;;;;;;4150149;28;20041;-74
2022/03/05 09:17:40;;;;;;;0.00;0.00;;;9.70;44.50;;;;;;4150347;28;20578;-74
2022/03/05 09:20:07;;;;;;;0.00;0.00;;;8.90;46.00;;;;;;4136601;28;20046;-75
2022/03/05 09:22:33;;;;;;;0.00;0.00;;;9.30;46.00;;;;;;4149584;28;20546;-72
2022/03/05 09:24:55;;;;;;;0.00;0.00;;;9.30;46.00;;;;;;4136652;28;20050;-73
2022/03/05 09:27:24;;;;;;;0.00;0.00;;;9.90;45.40;;;;;;4142960;28;20065;-74
2022/03/05 09:29:49;;;;;;;0.00;0.00;;;10.00;44.60;;;;;;4133837;28;20047;-70
2022/03/05 09:32:16;;;;;;;0.00;0.00;;;10.10;44.40;;;;;;4120210;28;20050;-73
2022/03/05 09:34:46;;;;;;;0.00;0.00;;;10.10;44.50;;;;;;4133864;28;20049;-74
2022/03/05 09:37:17;;;;;;;0.00;0.00;;;9.60;45.30;;;;;;4134557;28;20078;-72
2022/03/05 09:39:40;;;;;;;0.00;0.00;;;9.30;45.90;;;;;;4134044;28;20042;-75
2022/03/05 09:42:05;;;;;;;0.00;0.00;;;9.40;45.50;;;;;;4107415;28;20055;-72
2022/03/05 09:44:28;;;;;;;0.00;0.00;;;8.90;46.00;;;;;;4123373;28;20513;-73
2022/03/05 09:47:12;;;;;;;0.00;0.00;;;8.30;47.50;;;;;;4133039;28;20050;-73
2022/03/05 09:49:41;;;;;;;0.00;0.00;;;8.40;47.80;;;;;;4120222;28;20042;-72
2022/03/05 09:52:05;;;;;;;0.00;0.00;;;8.80;47.00;;;;;;4134967;28;20133;-73
2022/03/05 09:54:28;;;;;;;0.00;0.00;;;9.60;46.20;;;;;;4148486;28;20042;-73
2022/03/05 09:56:50;;;;;;;0.00;0.00;;;9.90;45.20;;;;;;4108017;28;20081;-72
2022/03/05 09:59:14;;;;;;;0.00;0.00;;;10.30;45.20;;;;;;4133592;28;20061;-73
2022/03/05 10:01:41;;;;;;;0.00;0.00;;;11.00;44.40;;;;;;4119876;28;20053;-72
2022/03/05 10:04:21;;;;;;;0.00;0.00;;;11.90;43.40;;;;;;4133492;28;20104;-74
2022/03/05 10:06:45;;;;;;;0.00;0.00;;;12.60;42.10;;;;;;4133064;28;20057;-72
2022/03/05 10:09:22;;;;;;;0.00;0.00;;;11.40;41.10;;;;;;4133557;28;20042;-71
2022/03/05 10:11:48;;;;;;;0.00;0.00;;;10.10;44.00;;;;;;4120149;28;20465;-72
2022/03/05 10:14:21;;;;;;;0.00;0.00;;;10.80;44.70;;;;;;4117494;28;20457;-72
2022/03/05 10:16:46;;;;;;;0.00;0.00;;;11.90;42.70;;;;;;4133045;28;20050;-72
2022/03/05 10:19:19;;;;;;;0.00;0.00;;;12.10;42.30;;;;;;4133150;28;20097;-71
2022/03/05 10:22:00;;;;;;;0.00;0.00;;;12.30;42.30;;;;;;4119434;28;20051;-73
2022/03/05 10:24:40;;;;;;;0.00;0.00;;;12.90;41.50;;;;;;4146409;28;20054;-73
2022/03/05 10:27:08;;;;;;;0.00;0.00;;;12.90;41.70;;;;;;4119240;28;20122;-73
2022/03/05 10:29:37;;;;;;;0.00;0.00;;;13.20;41.40;;;;;;4132949;28;20128;-73
2022/03/05 10:32:05;;;;;;;0.00;0.00;;;13.80;40.10;;;;;;4132975;28;20058;-72
2022/03/05 10:34:54;;;;;;;0.00;0.00;;;13.50;40.20;;;;;;4119550;28;20129;-73
2022/03/05 10:37:18;;;;;;;0.00;0.00;;;14.20;39.30;;;;;;4132801;28;20050;-73
2022/03/05 10:39:42;;;;;;;0.00;0.00;;;14.60;39.30;;;;;;4133152;28;20050;-73
2022/03/05 10:42:20;;;;;;;0.00;0.00;;;15.20;38.10;;;;;;4118820;28;20051;-72
2022/03/05 10:44:45;;;;;;;0.00;0.00;;;15.50;37.60;;;;;;4119364;28;20053;-74
2022/03/05 10:47:13;;;;;;;0.00;0.00;;;15.60;37.60;;;;;;4119153;28;20110;-75
2022/03/05 10:49:39;;;;;;;0.00;0.00;;;15.10;36.70;;;;;;4119354;28;20390;-73
2022/03/05 10:52:02;;;;;;;0.00;0.00;;;13.80;38.40;;;;;;4132749;28;20465;-73
2022/03/05 10:54:33;;;;;;;0.00;0.00;;;13.20;39.10;;;;;;4118858;28;20428;-73
2022/03/05 10:57:07;;;;;;;0.00;0.00;;;13.90;38.50;;;;;;4119061;28;20122;-74
2022/03/05 10:59:40;;;;;;;0.00;0.00;;;13.40;38.80;;;;;;4118961;28;20141;-74
2022/03/05 11:02:05;;;;;;;0.00;0.00;;;13.80;39.10;;;;;;4132412;28;20466;-73
2022/03/05 11:04:29;;;;;;;0.00;0.00;;;15.10;38.00;;;;;;4132387;28;20492;-74
2022/03/05 11:06:52;;;;;;;0.00;0.00;;;16.00;36.40;;;;;;4118947;28;20117;-72
2022/03/05 11:09:17;;;;;;;0.00;0.00;;;16.10;35.80;;;;;;4132310;28;20050;-72
2022/03/05 11:11:43;;;;;;;0.00;0.00;;;16.50;35.10;;;;;;4118171;28;20524;-73
2022/03/05 11:14:16;;;;;;;0.00;0.00;;;17.10;34.90;;;;;;4131979;28;20089;-74
2022/03/05 11:16:44;;;;;;;0.00;0.00;;;17.80;34.10;;;;;;4132229;28;20042;-73
2022/03/05 11:19:06;;;;;;;0.00;0.00;;;15.90;34.60;;;;;;4132268;28;20120;-73
2022/03/05 11:21:29;;;;;;;0.00;0.00;;;16.20;35.30;;;;;;4118600;28;20569;-75
2022/03/05 11:23:51;;;;;;;0.00;0.00;;;17.00;34.20;;;;;;4118696;28;20055;-74
2022/03/05 11:26:16;;;;;;;0.00;0.00;;;16.90;33.70;;;;;;4131676;28;20081;-75
2022/03/05 11:28:50;;;;;;;0.00;0.00;;;16.20;34.20;;;;;;4132102;28;20070;-74
2022/03/05 11:31:20;;;;;;;0.00;0.00;;;15.60;35.10;;;;;;4132055;28;20046;-73
2022/03/05 11:33:44;;;;;;;0.00;0.00;;;15.80;35.00;;;;;;4118890;28;20389;-73
2022/03/05 11:36:21;;;;;;;0.00;0.00;;;16.60;34.70;;;;;;4118204;28;20098;-72
2022/03/05 11:38:43;;;;;;;0.00;0.00;;;17.20;33.60;;;;;;4132010;28;20057;-73
2022/03/05 11:41:21;;;;;;;0.00;0.00;;;17.30;33.30;;;;;;4131927;28;20045;-74
2022/03/05 11:43:47;;;;;;;0.00;0.00;;;17.00;33.00;;;;;;4105078;28;20473;-72
2022/03/05 11:46:26;;;;;;;0.00;0.00;;;17.00;33.60;;;;;;4117934;28;20094;-73
2022/03/05 11:49:08;;;;;;;0.00;0.00;;;17.80;32.50;;;;;;4118557;28;20134;-73
2022/03/05 11:51:30;;;;;;;0.00;0.00;;;17.60;32.50;;;;;;4132228;28;20149;-72
2022/03/05 11:54:15;;;;;;;0.00;0.00;;;15.90;33.60;;;;;;4132443;28;20046;-72
2022/03/05 11:57:23;;;;;;;0.00;0.00;;;15.60;34.90;;;;;;4117713;28;20042;-74
2022/03/05 11:59:57;;;;;;;0.00;0.00;;;16.40;33.80;;;;;;4118259;28;20050;-76
2022/03/05 12:02:42;;;;;;;0.00;0.00;;;16.90;34.10;;;;;;4117283;28;20051;-75
2022/03/05 12:05:04;;;;;;;0.00;0.00;;;17.80;33.30;;;;;;4118215;28;20050;-73
2022/03/05 12:07:44;;;;;;;0.00;0.00;;;18.50;32.50;;;;;;4131929;28;20046;-73
2022/03/05 12:10:14;;;;;;;0.00;0.00;;;18.80;32.20;;;;;;4131468;28;20046;-73
2022/03/05 12:13:08;;;;;;;0.00;0.00;;;17.90;33.20;;;;;;4132066;28;20065;-73
2022/03/05 12:15:38;;;;;;;0.00;0.00;;;18.40;32.30;;;;;;4131809;28;20042;-75
2022/03/05 12:18:05;;;;;;;0.00;0.00;;;18.70;32.60;;;;;;4131787;28;20050;-73
2022/03/05 12:20:31;;;;;;;0.00;0.00;;;19.30;31.60;;;;;;4118163;28;20061;-73
2022/03/05 12:23:04;;;;;;;0.00;0.00;;;19.70;31.20;;;;;;4132784;28;20373;-75
2022/03/05 12:25:41;;;;;;;0.00;0.00;;;19.90;30.70;;;;;;4134963;28;20141;-74
2022/03/05 12:28:07;;;;;;;0.00;0.00;;;20.00;30.10;;;;;;4134944;28;20058;-74
2022/03/05 12:30:32;;;;;;;0.00;0.00;;;20.00;30.60;;;;;;4148105;28;20076;-72
2022/03/05 12:33:02;;;;;;;0.00;0.00;;;20.40;30.20;;;;;;4134906;28;20050;-74
2022/03/05 12:35:26;;;;;;;0.00;0.00;;;20.80;30.10;;;;;;4121085;28;20081;-73
2022/03/05 12:37:53;;;;;;;0.00;0.00;;;21.10;30.00;;;;;;4134526;28;20038;-74
2022/03/05 12:40:16;;;;;;;0.00;0.00;;;21.20;29.80;;;;;;4120552;28;20366;-74
2022/03/05 12:42:43;;;;;;;0.00;0.00;;;20.90;29.70;;;;;;4120885;28;20040;-74
2022/03/05 12:45:13;;;;;;;0.00;0.00;;;21.00;29.80;;;;;;4134717;28;20058;-72
2022/03/05 12:47:35;;;;;;;0.00;0.00;;;21.10;29.90;;;;;;4134469;28;20049;-72
2022/03/05 12:49:57;;;;;;;0.00;0.00;;;21.20;30.00;;;;;;4134525;28;20089;-72
2022/03/05 12:52:19;;;;;;;0.00;0.00;;;21.60;29.70;;;;;;4119925;28;20409;-75
2022/03/05 12:54:45;;;;;;;0.00;0.00;;;21.70;29.10;;;;;;4134169;28;20066;-73
2022/03/05 12:57:11;;;;;;;0.00;0.00;;;21.90;29.10;;;;;;4134198;28;20042;-74